createdAt,value
2023-03-05T00:00:39.265Z,24.37
2023-03-05T00:01:41.093Z,23.63
2023-03-05T00:02:43.125Z,23.57
2023-03-05T00:03:45.822Z,22.53
2023-03-05T00:04:47.393Z,23.50
2023-03-05T00:05:48.950Z,21.93
2023-03-05T00:06:50.864Z,22.57
2023-03-05T00:07:52.457Z,22.63
2023-03-05T00:08:56.716Z,24.47
2023-03-05T00:10:03.012Z,24.47
2023-03-05T00:11:07.807Z,24.57
2023-03-05T00:12:09.612Z,25.53
2023-03-05T00:13:11.160Z,24.47
2023-03-05T00:14:13.174Z,25.20
2023-03-05T00:15:14.817Z,24.87
2023-03-05T00:16:16.646Z,25.40
2023-03-05T00:17:18.231Z,25.30
2023-03-05T00:18:20.388Z,24.40
2023-03-05T00:19:21.954Z,23.77
2023-03-05T00:20:23.550Z,23.33
2023-03-05T00:21:38.017Z,23.20
2023-03-05T00:22:39.571Z,24.10
2023-03-05T00:23:41.135Z,24.10
2023-03-05T00:24:42.640Z,25.23
2023-03-05T00:25:46.017Z,25.37
2023-03-05T00:26:48.079Z,24.87
2023-03-05T00:27:49.617Z,24.13
2023-03-05T00:28:52.462Z,24.23
2023-03-05T00:29:53.977Z,24.60
2023-03-05T00:30:59.893Z,25.50
2023-03-05T00:32:01.494Z,24.17
2023-03-05T00:33:03.196Z,24.20
2023-03-05T00:34:08.497Z,25.90
2023-03-05T00:35:10.282Z,25.90
2023-03-05T00:36:11.899Z,22.73
2023-03-05T00:37:13.470Z,21.73
2023-03-05T00:38:15.022Z,21.60
2023-03-05T00:39:18.120Z,20.53
2023-03-05T00:40:20.029Z,19.83
2023-03-05T00:41:21.911Z,19.50
2023-03-05T00:42:23.461Z,19.67
2023-03-05T00:43:25.078Z,19.50
2023-03-05T00:44:26.677Z,18.97
2023-03-05T00:45:28.225Z,18.60
2023-03-05T00:46:29.979Z,18.67
2023-03-05T00:47:31.606Z,19.00
2023-03-05T00:48:33.094Z,18.60
2023-03-05T00:49:34.817Z,18.67
2023-03-05T00:50:36.324Z,18.10
2023-03-05T00:51:38.032Z,18.17
2023-03-05T00:52:39.598Z,17.40
2023-03-05T00:53:41.164Z,17.40
2023-03-05T00:54:42.692Z,17.70
2023-03-05T00:55:44.261Z,17.17
2023-03-05T00:56:46.483Z,17.63
2023-03-05T00:57:48.113Z,18.03
2023-03-05T00:58:49.685Z,17.87
2023-03-05T00:59:51.186Z,19.13
2023-03-05T01:00:52.752Z,18.73
2023-03-05T01:01:54.316Z,19.50
2023-03-05T01:02:55.984Z,19.77
2023-03-05T01:03:59.580Z,20.20
2023-03-05T01:05:01.163Z,19.70
2023-03-05T01:06:07.959Z,20.17
2023-03-05T01:07:09.474Z,22.10
2023-03-05T01:08:11.741Z,22.97
2023-03-05T01:09:13.420Z,23.60
2023-03-05T01:10:14.969Z,24.47
2023-03-05T01:11:16.662Z,23.80
2023-03-05T01:12:18.216Z,25.83
2023-03-05T01:13:19.922Z,24.30
2023-03-05T01:14:21.524Z,25.00
2023-03-05T01:15:24.054Z,26.27
2023-03-05T01:16:25.714Z,26.93
2023-03-05T01:17:27.483Z,27.63
2023-03-05T01:18:29.156Z,25.97
2023-03-05T01:19:30.712Z,26.97
2023-03-05T01:20:32.281Z,25.93
2023-03-05T01:21:35.856Z,26.20
2023-03-05T01:22:37.371Z,26.40
2023-03-05T01:23:38.955Z,25.70
2023-03-05T01:24:40.562Z,25.83
2023-03-05T01:25:42.242Z,25.47
2023-03-05T01:26:43.844Z,25.73
2023-03-05T01:27:46.134Z,25.87
2023-03-05T01:28:47.755Z,25.97
2023-03-05T01:29:49.329Z,24.97
2023-03-05T01:30:50.930Z,24.57
2023-03-05T01:31:52.653Z,24.90
2023-03-05T01:32:54.996Z,26.57
2023-03-05T01:33:56.592Z,26.93
2023-03-05T01:34:58.106Z,25.73
2023-03-05T01:35:59.695Z,27.13
2023-03-05T01:37:01.236Z,28.60
2023-03-05T01:38:02.757Z,28.70
2023-03-05T01:39:04.462Z,28.13
2023-03-05T01:40:06.771Z,26.63
2023-03-05T01:41:08.753Z,27.10
2023-03-05T01:42:10.319Z,27.30
2023-03-05T01:43:12.020Z,26.40
2023-03-05T01:44:26.536Z,25.70
2023-03-05T01:45:32.548Z,24.50
2023-03-05T01:46:38.729Z,24.33
2023-03-05T01:47:40.573Z,25.67
2023-03-05T01:48:45.920Z,25.80
2023-03-05T01:49:47.550Z,23.87
2023-03-05T01:50:49.248Z,24.07
2023-03-05T01:52:00.046Z,23.00
2023-03-05T01:53:06.565Z,21.80
2023-03-05T01:54:10.619Z,22.93
2023-03-05T01:55:18.043Z,22.37
2023-03-05T01:56:19.946Z,21.17
2023-03-05T01:57:36.879Z,22.40
2023-03-05T01:58:39.842Z,22.40
2023-03-05T01:59:44.720Z,21.93
2023-03-05T02:00:48.369Z,22.07
2023-03-05T02:01:55.934Z,22.87
2023-03-05T02:03:02.197Z,22.07
2023-03-05T02:04:04.876Z,22.40
2023-03-05T02:05:29.911Z,23.33
2023-03-05T02:06:31.637Z,24.07
2023-03-05T02:07:33.802Z,24.83
2023-03-05T02:08:35.357Z,24.47
2023-03-05T02:09:41.195Z,26.83
2023-03-05T02:10:45.793Z,27.03
2023-03-05T02:11:47.393Z,25.97
2023-03-05T02:12:50.203Z,27.30
2023-03-05T02:13:52.078Z,26.43
2023-03-05T02:14:59.280Z,30.13
2023-03-05T02:16:02.247Z,29.80
2023-03-05T02:17:04.027Z,30.20
2023-03-05T02:18:07.289Z,27.00
2023-03-05T02:19:11.386Z,25.80
2023-03-05T02:20:15.335Z,27.67
2023-03-05T02:21:28.528Z,26.37
2023-03-05T02:22:30.115Z,25.97
2023-03-05T02:23:36.364Z,25.77
2023-03-05T02:24:37.905Z,24.90
2023-03-05T02:25:39.507Z,25.53
2023-03-05T02:26:44.698Z,25.73
2023-03-05T02:28:23.240Z,25.07
2023-03-05T02:29:25.045Z,23.93
2023-03-05T02:30:27.489Z,24.47
2023-03-05T02:31:29.606Z,23.03
2023-03-05T02:32:31.199Z,24.50
2023-03-05T02:33:32.781Z,24.17
2023-03-05T02:34:34.267Z,23.80
2023-03-05T02:35:36.279Z,24.63
2023-03-05T02:36:37.947Z,24.90
2023-03-05T02:37:39.985Z,23.40
2023-03-05T02:38:43.438Z,22.57
2023-03-05T02:39:45.057Z,23.53
2023-03-05T02:40:46.701Z,23.43
2023-03-05T02:41:48.283Z,22.57
2023-03-05T02:42:49.813Z,24.00
2023-03-05T02:43:51.457Z,23.53
2023-03-05T02:44:52.963Z,23.57
2023-03-05T02:45:54.556Z,23.40
2023-03-05T02:46:56.876Z,24.37
2023-03-05T02:47:58.459Z,23.77
2023-03-05T02:49:00.369Z,23.67
2023-03-05T02:50:02.310Z,23.97
2023-03-05T02:51:06.175Z,25.13
2023-03-05T02:52:07.876Z,23.43
2023-03-05T02:53:09.535Z,24.27
2023-03-05T02:54:11.128Z,24.33
2023-03-05T02:55:12.687Z,24.20
2023-03-05T02:56:14.326Z,24.47
2023-03-05T02:57:16.162Z,24.23
2023-03-05T02:58:18.243Z,23.00
2023-03-05T02:59:19.795Z,24.30
2023-03-05T03:00:21.646Z,23.20
2023-03-05T03:01:23.319Z,24.13
2023-03-05T03:02:24.955Z,23.00
2023-03-05T03:03:26.601Z,23.63
2023-03-05T03:04:28.176Z,23.93
2023-03-05T03:05:29.764Z,24.77
2023-03-05T03:06:31.321Z,24.80
2023-03-05T03:07:34.495Z,23.83
2023-03-05T03:08:36.235Z,24.80
2023-03-05T03:09:38.226Z,24.23
2023-03-05T03:10:39.750Z,24.73
2023-03-05T03:11:41.338Z,25.30
2023-03-05T03:12:45.002Z,25.43
2023-03-05T03:13:46.494Z,24.47
2023-03-05T03:14:48.164Z,25.30
2023-03-05T03:15:49.697Z,25.60
2023-03-05T03:16:51.233Z,26.27
2023-03-05T03:17:52.820Z,24.83
2023-03-05T03:18:54.400Z,25.90
2023-03-05T03:19:55.963Z,27.90
2023-03-05T03:20:57.535Z,26.27
2023-03-05T03:21:59.132Z,28.17
2023-03-05T03:23:00.796Z,27.27
2023-03-05T03:24:02.591Z,27.00
2023-03-05T03:25:05.250Z,27.93
2023-03-05T03:26:07.179Z,32.37
2023-03-05T03:27:08.856Z,30.33
2023-03-05T03:28:10.393Z,29.97
2023-03-05T03:29:11.966Z,31.00
2023-03-05T03:30:15.129Z,32.47
2023-03-05T03:31:17.416Z,31.53
2023-03-05T03:32:19.067Z,30.83
2023-03-05T03:33:20.634Z,31.43
2023-03-05T03:34:22.462Z,32.50
2023-03-05T03:35:24.081Z,32.70
2023-03-05T03:36:25.754Z,32.20
2023-03-05T03:37:27.664Z,31.83
2023-03-05T03:38:29.230Z,31.43
2023-03-05T03:39:30.879Z,31.90
2023-03-05T03:40:32.487Z,31.60
2023-03-05T03:41:34.290Z,31.40
2023-03-05T03:42:36.130Z,30.30
2023-03-05T03:43:37.861Z,31.90
2023-03-05T03:44:39.412Z,31.40
2023-03-05T03:45:45.150Z,30.63
2023-03-05T03:46:47.998Z,32.23
2023-03-05T03:47:50.263Z,31.77
2023-03-05T03:48:51.850Z,31.70
2023-03-05T03:49:56.316Z,30.00
2023-03-05T03:50:57.894Z,32.13
2023-03-05T03:51:59.660Z,31.33
2023-03-05T03:53:01.841Z,32.03
2023-03-05T03:54:03.440Z,32.30
2023-03-05T03:55:05.362Z,33.07
2023-03-05T03:56:07.155Z,33.40
2023-03-05T03:57:09.497Z,35.20
2023-03-05T03:58:11.126Z,33.50
2023-03-05T03:59:13.040Z,32.83
2023-03-05T04:00:14.958Z,32.63
2023-03-05T04:01:16.668Z,31.17
2023-03-05T04:02:18.405Z,29.73
2023-03-05T04:03:20.027Z,29.23
2023-03-05T04:04:21.655Z,27.20
2023-03-05T04:05:23.644Z,26.20
2023-03-05T04:06:25.332Z,25.87
2023-03-05T04:07:26.902Z,25.73
2023-03-05T04:08:28.511Z,25.47
2023-03-05T04:09:30.073Z,25.93
2023-03-05T04:10:31.628Z,27.67
2023-03-05T04:11:33.166Z,28.10
2023-03-05T04:12:34.799Z,27.40
2023-03-05T04:13:36.335Z,27.43
2023-03-05T04:14:38.065Z,28.37
2023-03-05T04:15:39.748Z,28.47
2023-03-05T04:16:41.362Z,28.73
2023-03-05T04:17:42.918Z,30.23
2023-03-05T04:18:44.476Z,33.00
2023-03-05T04:19:46.099Z,31.57
2023-03-05T04:20:47.932Z,29.40
2023-03-05T04:21:49.503Z,29.43
2023-03-05T04:22:51.164Z,27.83
2023-03-05T04:23:52.714Z,27.73
2023-03-05T04:24:54.306Z,29.27
2023-03-05T04:25:55.893Z,26.97
2023-03-05T04:26:57.488Z,27.80
2023-03-05T04:27:59.182Z,27.17
2023-03-05T04:29:00.737Z,26.57
2023-03-05T04:30:02.248Z,26.77
2023-03-05T04:31:04.507Z,27.83
2023-03-05T04:32:06.486Z,25.70
2023-03-05T04:33:08.077Z,25.87
2023-03-05T04:34:09.723Z,26.60
2023-03-05T04:35:11.335Z,26.27
2023-03-05T04:36:12.840Z,27.00
2023-03-05T04:37:14.462Z,26.67
2023-03-05T04:38:16.128Z,27.30
2023-03-05T04:39:17.737Z,24.73
2023-03-05T04:40:19.575Z,24.40
2023-03-05T04:41:21.181Z,25.30
2023-03-05T04:42:22.751Z,25.30
2023-03-05T04:43:24.305Z,27.27
2023-03-05T04:44:26.131Z,27.20
2023-03-05T04:45:27.819Z,29.37
2023-03-05T04:46:29.488Z,32.50
2023-03-05T04:47:31.035Z,32.13
2023-03-05T04:48:32.633Z,32.30
2023-03-05T04:49:34.166Z,29.93
2023-03-05T04:50:35.759Z,31.53
2023-03-05T04:51:37.296Z,31.00
2023-03-05T04:52:43.781Z,30.60
2023-03-05T04:53:45.348Z,30.93
2023-03-05T04:54:46.910Z,30.33
2023-03-05T04:55:55.824Z,30.77
2023-03-05T04:56:57.407Z,29.33
2023-03-05T04:57:59.287Z,29.27
2023-03-05T04:59:00.870Z,29.87
2023-03-05T05:00:06.840Z,29.47
2023-03-05T05:01:08.434Z,30.80
2023-03-05T05:02:09.976Z,29.47
2023-03-05T05:03:11.677Z,29.07
2023-03-05T05:04:13.484Z,28.67
2023-03-05T05:05:21.734Z,29.53
2023-03-05T05:06:23.248Z,28.73
2023-03-05T05:07:24.784Z,27.83
2023-03-05T05:08:27.446Z,29.20
2023-03-05T05:09:28.978Z,29.30
2023-03-05T05:10:31.636Z,29.20
2023-03-05T05:11:33.200Z,29.80
2023-03-05T05:12:35.281Z,28.90
2023-03-05T05:13:36.827Z,29.67
2023-03-05T05:14:38.734Z,28.97
2023-03-05T05:15:40.819Z,29.53
2023-03-05T05:16:42.381Z,29.20
2023-03-05T05:17:44.164Z,29.20
2023-03-05T05:18:46.318Z,29.23
2023-03-05T05:19:47.955Z,29.00
2023-03-05T05:20:49.792Z,28.50
2023-03-05T05:21:51.345Z,28.63
2023-03-05T05:22:52.857Z,29.13
2023-03-05T05:23:54.437Z,30.77
2023-03-05T05:24:56.624Z,28.27
2023-03-05T05:26:03.128Z,26.13
2023-03-05T05:27:04.684Z,26.67
2023-03-05T05:28:06.252Z,26.63
2023-03-05T05:29:07.891Z,26.63
2023-03-05T05:30:10.243Z,25.63
2023-03-05T05:31:14.676Z,26.00
2023-03-05T05:32:18.015Z,24.67
2023-03-05T05:33:19.670Z,25.10
2023-03-05T05:34:21.249Z,25.30
2023-03-05T05:35:22.912Z,24.43
2023-03-05T05:36:24.610Z,23.60
2023-03-05T05:37:27.368Z,24.23
2023-03-05T05:38:28.879Z,23.67
2023-03-05T05:39:30.673Z,23.83
2023-03-05T05:40:32.300Z,23.17
2023-03-05T05:41:33.850Z,22.93
2023-03-05T05:42:35.550Z,23.60
2023-03-05T05:43:37.627Z,23.50
2023-03-05T05:44:39.193Z,23.50
2023-03-05T05:45:40.965Z,23.60
2023-03-05T05:46:42.640Z,24.43
2023-03-05T05:47:44.235Z,24.63
2023-03-05T05:48:46.705Z,23.83
2023-03-05T05:49:48.237Z,24.10
2023-03-05T05:50:49.731Z,25.17
2023-03-05T05:51:51.267Z,23.80
2023-03-05T05:52:52.901Z,23.87
2023-03-05T05:53:54.629Z,25.23
2023-03-05T05:54:56.295Z,25.90
2023-03-05T05:55:57.848Z,23.97
2023-03-05T05:56:59.540Z,24.87
2023-03-05T05:58:01.099Z,24.20
2023-03-05T05:59:02.636Z,25.17
2023-03-05T06:00:09.038Z,24.63
2023-03-05T06:01:29.189Z,23.80
2023-03-05T06:02:30.819Z,23.10
2023-03-05T06:03:32.465Z,24.40
2023-03-05T06:04:35.750Z,22.70
2023-03-05T06:05:37.354Z,24.30
2023-03-05T06:06:38.906Z,24.43
2023-03-05T06:07:40.666Z,23.70
2023-03-05T06:08:42.232Z,25.27
2023-03-05T06:09:44.049Z,25.37
2023-03-05T06:10:45.690Z,24.90
2023-03-05T06:11:47.433Z,25.27
2023-03-05T06:12:49.014Z,25.63
2023-03-05T06:13:50.713Z,24.90
2023-03-05T06:14:52.338Z,24.60
2023-03-05T06:16:02.128Z,23.60
2023-03-05T06:17:03.677Z,23.87
2023-03-05T06:18:05.306Z,23.20
2023-03-05T06:19:07.002Z,23.43
2023-03-05T06:20:09.236Z,24.43
2023-03-05T06:21:13.252Z,23.37
2023-03-05T06:22:14.820Z,24.47
2023-03-05T06:23:16.359Z,23.57
2023-03-05T06:24:19.356Z,24.07
2023-03-05T06:25:20.999Z,23.40
2023-03-05T06:26:22.904Z,23.67
2023-03-05T06:27:24.477Z,23.60
2023-03-05T06:28:26.510Z,23.30
2023-03-05T06:29:28.074Z,22.57
2023-03-05T06:30:29.666Z,22.87
2023-03-05T06:31:31.424Z,23.90
2023-03-05T06:32:33.155Z,23.00
2023-03-05T06:33:36.060Z,23.17
2023-03-05T06:34:37.653Z,23.20
2023-03-05T06:35:42.548Z,23.33
2023-03-05T06:36:44.293Z,22.67
2023-03-05T06:37:45.966Z,23.90
2023-03-05T06:38:48.958Z,22.60
2023-03-05T06:39:50.690Z,22.47
2023-03-05T06:40:52.534Z,24.07
2023-03-05T06:41:54.131Z,21.83
2023-03-05T06:42:55.752Z,21.40
2023-03-05T06:43:59.983Z,21.43
2023-03-05T06:45:01.541Z,21.40
2023-03-05T06:46:12.916Z,22.07
2023-03-05T06:47:14.658Z,22.50
2023-03-05T06:48:16.173Z,21.57
2023-03-05T06:49:17.798Z,21.80
2023-03-05T06:50:19.491Z,22.70
2023-03-05T06:51:29.915Z,22.23
2023-03-05T06:52:31.446Z,22.47
2023-03-05T06:53:33.033Z,21.67
2023-03-05T06:54:34.753Z,22.23
2023-03-05T06:55:39.779Z,22.47
2023-03-05T06:56:43.798Z,22.70
2023-03-05T06:57:45.423Z,23.03
2023-03-05T06:58:49.420Z,22.93
2023-03-05T06:59:51.008Z,23.17
2023-03-05T07:00:52.601Z,23.20
2023-03-05T07:01:54.195Z,23.93
2023-03-05T07:02:55.739Z,25.73
2023-03-05T07:04:00.617Z,25.80
2023-03-05T07:05:02.281Z,24.00
2023-03-05T07:06:09.478Z,26.20
2023-03-05T07:07:11.057Z,23.47
2023-03-05T07:08:12.637Z,23.97
2023-03-05T07:09:15.959Z,24.67
2023-03-05T07:10:17.558Z,24.83
2023-03-05T07:11:22.244Z,24.77
2023-03-05T07:12:23.772Z,25.37
2023-03-05T07:13:28.655Z,23.90
2023-03-05T07:14:30.196Z,24.97
2023-03-05T07:15:31.812Z,24.70
2023-03-05T07:16:34.851Z,25.40
2023-03-05T07:17:36.609Z,24.33
2023-03-05T07:18:38.115Z,25.10
2023-03-05T07:19:39.680Z,25.63
2023-03-05T07:20:41.453Z,24.40
2023-03-05T07:21:43.019Z,24.50
2023-03-05T07:22:44.562Z,24.00
2023-03-05T07:23:46.532Z,24.30
2023-03-05T07:24:48.112Z,24.83
2023-03-05T07:25:49.668Z,24.80
2023-03-05T07:26:51.296Z,24.73
2023-03-05T07:27:52.880Z,23.27
2023-03-05T07:28:55.253Z,24.47
2023-03-05T07:29:56.839Z,25.20
2023-03-05T07:31:13.563Z,24.83
2023-03-05T07:32:15.086Z,24.37
2023-03-05T07:33:16.613Z,22.90
2023-03-05T07:34:18.452Z,24.13
2023-03-05T07:35:20.185Z,23.63
2023-03-05T07:36:23.774Z,23.57
2023-03-05T07:37:25.364Z,23.63
2023-03-05T07:38:27.487Z,25.30
2023-03-05T07:39:29.099Z,24.60
2023-03-05T07:40:30.594Z,24.70
2023-03-05T07:41:32.425Z,24.40
2023-03-05T07:42:34.098Z,26.20
2023-03-05T07:43:35.732Z,25.43
2023-03-05T07:44:38.964Z,24.43
2023-03-05T07:45:42.244Z,25.97
2023-03-05T07:46:43.885Z,24.53
2023-03-05T07:47:45.488Z,24.50
2023-03-05T07:48:47.158Z,25.43
2023-03-05T07:49:49.107Z,24.63
2023-03-05T07:50:51.080Z,25.23
2023-03-05T07:51:52.657Z,26.67
2023-03-05T07:52:54.200Z,25.77
2023-03-05T07:53:57.575Z,25.83
2023-03-05T07:54:59.111Z,25.63
2023-03-05T07:56:00.960Z,24.87
2023-03-05T07:57:02.491Z,25.83
2023-03-05T07:58:03.988Z,26.83
2023-03-05T07:59:08.785Z,24.93
2023-03-05T08:00:11.086Z,26.63
2023-03-05T08:01:14.988Z,25.90
2023-03-05T08:02:16.593Z,25.87
2023-03-05T08:03:18.692Z,24.27
2023-03-05T08:04:20.235Z,25.63
2023-03-05T08:05:21.788Z,24.37
2023-03-05T08:06:24.163Z,25.27
2023-03-05T08:07:25.731Z,24.77
2023-03-05T08:08:27.307Z,24.47
2023-03-05T08:09:29.188Z,25.07
2023-03-05T08:10:31.109Z,25.23
2023-03-05T08:11:33.022Z,24.37
2023-03-05T08:12:34.840Z,25.30
2023-03-05T08:13:37.152Z,25.00
2023-03-05T08:14:38.774Z,24.37
2023-03-05T08:15:40.526Z,25.33
2023-03-05T08:16:42.168Z,24.10
2023-03-05T08:17:43.674Z,25.83
2023-03-05T08:18:45.733Z,25.67
2023-03-05T08:19:47.277Z,23.33
2023-03-05T08:20:48.872Z,22.30
2023-03-05T08:21:50.441Z,22.47
2023-03-05T08:22:52.139Z,23.77
2023-03-05T08:23:53.768Z,21.97
2023-03-05T08:24:56.473Z,22.17
2023-03-05T08:25:58.018Z,23.53
2023-03-05T08:27:00.556Z,23.03
2023-03-05T08:28:02.150Z,22.13
2023-03-05T08:29:04.737Z,22.87
2023-03-05T08:30:07.722Z,22.03
2023-03-05T08:31:14.196Z,22.47
2023-03-05T08:32:15.860Z,22.10
2023-03-05T08:33:17.986Z,22.50
2023-03-05T08:34:22.349Z,20.33
2023-03-05T08:35:23.963Z,22.33
2023-03-05T08:36:26.014Z,23.00
2023-03-05T08:37:27.525Z,20.33
2023-03-05T08:38:29.054Z,22.30
2023-03-05T08:39:30.702Z,22.47
2023-03-05T08:40:32.639Z,22.97
2023-03-05T08:41:34.666Z,22.33
2023-03-05T08:42:36.268Z,22.53
2023-03-05T08:43:37.846Z,24.23
2023-03-05T08:44:39.439Z,23.33
2023-03-05T08:45:40.977Z,22.90
2023-03-05T08:46:42.733Z,23.87
2023-03-05T08:47:44.358Z,23.03
2023-03-05T08:48:45.898Z,22.97
2023-03-05T08:49:47.592Z,22.77
2023-03-05T08:50:49.924Z,21.83
2023-03-05T08:51:51.494Z,21.73
2023-03-05T08:52:53.098Z,20.73
2023-03-05T08:53:56.521Z,21.50
2023-03-05T08:54:58.189Z,22.67
2023-03-05T08:56:00.136Z,21.87
2023-03-05T08:57:01.710Z,21.60
2023-03-05T08:58:03.540Z,21.30
2023-03-05T08:59:05.497Z,22.40
2023-03-05T09:00:07.660Z,20.77
2023-03-05T09:01:09.862Z,20.80
2023-03-05T09:02:13.420Z,22.13
2023-03-05T09:03:15.166Z,21.17
2023-03-05T09:04:17.022Z,22.17
2023-03-05T09:05:19.491Z,20.73
2023-03-05T09:06:21.234Z,21.30
2023-03-05T09:07:22.763Z,21.57
2023-03-05T09:08:24.274Z,20.77
2023-03-05T09:09:25.865Z,20.93
2023-03-05T09:10:27.430Z,21.60
2023-03-05T09:11:28.982Z,21.37
2023-03-05T09:12:30.534Z,22.43
2023-03-05T09:13:32.839Z,20.83
2023-03-05T09:14:34.383Z,20.73
2023-03-05T09:15:36.053Z,20.67
2023-03-05T09:16:40.438Z,20.40
2023-03-05T09:17:43.100Z,20.87
2023-03-05T09:18:45.155Z,20.93
2023-03-05T09:19:46.888Z,20.53
2023-03-05T09:20:48.428Z,22.23
2023-03-05T09:21:50.277Z,20.63
2023-03-05T09:22:51.844Z,20.53
2023-03-05T09:23:53.515Z,21.43
2023-03-05T09:24:55.099Z,20.23
2023-03-05T09:25:56.623Z,20.77
2023-03-05T09:26:59.881Z,20.83
2023-03-05T09:28:01.516Z,19.60
2023-03-05T09:29:03.627Z,21.07
2023-03-05T09:30:05.994Z,20.87
2023-03-05T09:31:09.273Z,20.67
2023-03-05T09:32:10.939Z,20.90
2023-03-05T09:33:12.619Z,20.37
2023-03-05T09:34:14.127Z,20.07
2023-03-05T09:35:15.684Z,20.43
2023-03-05T09:36:23.964Z,21.10
2023-03-05T09:37:25.862Z,18.90
2023-03-05T09:38:27.916Z,20.50
2023-03-05T09:39:29.548Z,20.37
2023-03-05T09:40:54.322Z,20.53
2023-03-05T09:41:55.808Z,20.37
2023-03-05T09:43:19.506Z,19.70
2023-03-05T09:44:52.243Z,19.50
2023-03-05T09:46:26.034Z,18.47
2023-03-05T09:47:48.432Z,18.50
2023-03-05T09:48:53.539Z,18.37
2023-03-05T09:50:13.843Z,19.87
2023-03-05T09:51:22.335Z,18.57
2023-03-05T09:52:34.835Z,18.23
2023-03-05T09:53:39.390Z,18.40
2023-03-05T09:54:45.596Z,18.60
2023-03-05T09:56:01.535Z,19.33
2023-03-05T09:57:05.436Z,18.40
2023-03-05T09:58:14.297Z,18.93
2023-03-05T09:59:39.840Z,18.83
2023-03-05T10:00:56.121Z,17.77
2023-03-05T10:02:05.161Z,19.10
2023-03-05T10:03:16.374Z,18.00
2023-03-05T10:04:33.263Z,18.17
2023-03-05T10:05:50.648Z,18.10
2023-03-05T10:06:52.165Z,19.20
2023-03-05T10:07:59.326Z,18.73
2023-03-05T10:09:10.128Z,16.93
2023-03-05T10:10:22.464Z,17.33
2023-03-05T10:11:50.916Z,16.47
2023-03-05T10:12:57.447Z,17.37
2023-03-05T10:13:59.140Z,16.17
2023-03-05T10:15:03.120Z,17.37
2023-03-05T10:16:34.917Z,18.27
2023-03-05T10:17:58.462Z,18.37
2023-03-05T10:19:11.066Z,17.13
2023-03-05T10:20:32.434Z,17.57
2023-03-05T10:21:40.385Z,17.17
2023-03-05T10:23:00.416Z,16.80
2023-03-05T10:24:25.505Z,16.80
2023-03-05T10:25:55.338Z,17.23
2023-03-05T10:27:04.583Z,17.30
2023-03-05T10:28:26.061Z,17.13
2023-03-05T10:29:39.623Z,16.63
2023-03-05T10:31:09.106Z,16.07
2023-03-05T10:33:04.840Z,16.50
2023-03-05T10:34:22.615Z,16.53
2023-03-05T10:35:36.003Z,16.63
2023-03-05T10:37:14.469Z,16.80
2023-03-05T10:38:28.578Z,16.50
2023-03-05T10:39:48.354Z,17.20
2023-03-05T10:40:55.541Z,16.20
2023-03-05T10:42:20.198Z,16.30
2023-03-05T10:43:35.436Z,15.57
2023-03-05T10:44:57.550Z,15.70
2023-03-05T10:46:02.792Z,15.03
2023-03-05T10:47:15.050Z,16.90
2023-03-05T10:48:40.968Z,15.37
2023-03-05T10:49:51.706Z,16.60
2023-03-05T10:51:02.674Z,16.37
2023-03-05T10:52:08.841Z,17.13
2023-03-05T10:53:10.311Z,16.47
2023-03-05T10:54:25.383Z,16.30
2023-03-05T10:55:26.989Z,17.30
2023-03-05T10:56:31.843Z,16.43
2023-03-05T10:57:33.443Z,15.97
2023-03-05T10:58:35.044Z,16.10
2023-03-05T10:59:36.647Z,16.23
2023-03-05T11:00:38.311Z,15.60
2023-03-05T11:01:39.969Z,16.43
2023-03-05T11:03:06.482Z,15.10
2023-03-05T11:04:26.936Z,15.57
2023-03-05T11:05:37.351Z,15.33
2023-03-05T11:06:41.539Z,14.53
2023-03-05T11:07:43.091Z,15.10
2023-03-05T11:08:45.309Z,15.37
2023-03-05T11:10:15.265Z,15.00
2023-03-05T11:11:19.578Z,16.53
2023-03-05T11:12:26.497Z,14.63
2023-03-05T11:13:29.253Z,14.77
2023-03-05T11:14:33.547Z,13.47
2023-03-05T11:15:35.171Z,13.43
2023-03-05T11:16:48.872Z,14.23
2023-03-05T11:18:08.100Z,14.67
2023-03-05T11:19:34.647Z,13.67
2023-03-05T11:20:36.916Z,14.23
2023-03-05T11:21:38.493Z,13.47
2023-03-05T11:22:40.042Z,14.30
2023-03-05T11:23:41.675Z,14.10
2023-03-05T11:24:46.713Z,14.07
2023-03-05T11:25:53.116Z,13.47
2023-03-05T11:26:57.584Z,14.33
2023-03-05T11:28:01.917Z,13.10
2023-03-05T11:29:04.991Z,15.37
2023-03-05T11:30:20.726Z,13.73
2023-03-05T11:31:26.333Z,13.47
2023-03-05T11:32:29.385Z,13.27
2023-03-05T11:33:31.514Z,13.63
2023-03-05T11:34:35.507Z,14.10
2023-03-05T11:35:39.786Z,14.20
2023-03-05T11:36:43.427Z,12.33
2023-03-05T11:38:00.361Z,13.30
2023-03-05T11:39:07.886Z,13.83
2023-03-05T11:40:25.254Z,13.57
2023-03-05T11:41:35.729Z,13.57
2023-03-05T11:42:40.366Z,14.20
2023-03-05T11:43:44.015Z,13.83
2023-03-05T11:44:48.442Z,13.83
2023-03-05T11:45:55.637Z,14.10
2023-03-05T11:47:35.813Z,14.23
2023-03-05T11:48:39.722Z,13.60
2023-03-05T11:49:46.170Z,12.90
2023-03-05T11:50:56.340Z,12.90
2023-03-05T11:52:20.513Z,12.77
2023-03-05T11:53:25.745Z,12.33
2023-03-05T11:54:36.575Z,12.93
2023-03-05T11:55:44.136Z,12.57
2023-03-05T11:56:46.386Z,14.13
2023-03-05T11:58:16.055Z,12.33
2023-03-05T11:59:30.295Z,14.00
2023-03-05T12:00:34.570Z,13.53
2023-03-05T12:01:47.521Z,13.93
2023-03-05T12:02:52.836Z,13.17
2023-03-05T12:03:55.696Z,12.90
2023-03-05T12:04:59.522Z,13.33
2023-03-05T12:06:13.286Z,12.87
2023-03-05T12:07:20.731Z,13.47
2023-03-05T12:08:29.550Z,12.70
2023-03-05T12:09:42.220Z,13.63
2023-03-05T12:10:44.351Z,12.07
2023-03-05T12:11:49.937Z,12.90
2023-03-05T12:12:54.518Z,13.87
2023-03-05T12:14:20.015Z,12.60
2023-03-05T12:15:49.189Z,12.43
2023-03-05T12:16:58.892Z,13.07
2023-03-05T12:18:32.803Z,13.37
2023-03-05T12:19:45.732Z,13.40
2023-03-05T12:20:50.074Z,12.53
2023-03-05T12:21:53.039Z,13.80
2023-03-05T12:22:57.501Z,13.40
2023-03-05T12:24:01.832Z,12.17
2023-03-05T12:25:35.351Z,12.30
2023-03-05T12:26:59.237Z,12.83
2023-03-05T12:28:01.560Z,12.00
2023-03-05T12:29:03.231Z,12.20
2023-03-05T12:30:05.476Z,11.43
2023-03-05T12:31:09.750Z,12.00
2023-03-05T12:32:28.974Z,11.43
2023-03-05T12:33:44.291Z,11.13
2023-03-05T12:34:48.419Z,12.40
2023-03-05T12:35:49.996Z,12.47
2023-03-05T12:36:51.592Z,12.23
2023-03-05T12:37:53.095Z,12.83
2023-03-05T12:38:56.294Z,12.60
2023-03-05T12:39:59.031Z,12.17
2023-03-05T12:41:21.979Z,11.53
2023-03-05T12:42:29.737Z,12.17
2023-03-05T12:43:33.924Z,11.87
2023-03-05T12:44:35.625Z,11.60
2023-03-05T12:45:40.027Z,11.33
2023-03-05T12:47:10.881Z,12.50
2023-03-05T12:48:12.772Z,11.40
2023-03-05T12:49:20.623Z,12.70
2023-03-05T12:50:28.295Z,12.50
2023-03-05T12:51:33.913Z,12.57
2023-03-05T12:52:35.579Z,13.17
2023-03-05T12:53:37.137Z,11.70
2023-03-05T12:54:42.380Z,12.63
2023-03-05T12:55:45.702Z,11.00
2023-03-05T12:56:48.044Z,13.07
2023-03-05T12:58:04.191Z,12.20
2023-03-05T12:59:06.020Z,11.87
2023-03-05T13:00:21.627Z,12.30
2023-03-05T13:01:36.192Z,11.90
2023-03-05T13:02:44.984Z,12.00
2023-03-05T13:04:05.231Z,10.93
2023-03-05T13:05:33.873Z,11.40
2023-03-05T13:06:36.733Z,12.43
2023-03-05T13:07:38.280Z,12.17
2023-03-05T13:08:39.877Z,12.27
2023-03-05T13:09:52.479Z,11.33
2023-03-05T13:10:57.813Z,11.83
2023-03-05T13:11:59.867Z,11.30
2023-03-05T13:13:02.680Z,11.07
2023-03-05T13:14:04.524Z,12.03
2023-03-05T13:15:09.401Z,13.37
2023-03-05T13:16:24.039Z,12.60
2023-03-05T13:17:33.726Z,12.33
2023-03-05T13:18:36.818Z,11.50
2023-03-05T13:19:41.852Z,11.97
2023-03-05T13:20:43.470Z,12.40
2023-03-05T13:21:45.170Z,11.90
2023-03-05T13:22:46.699Z,12.40
2023-03-05T13:23:57.660Z,12.87
2023-03-05T13:25:14.540Z,12.17
2023-03-05T13:26:19.289Z,12.23
2023-03-05T13:27:30.046Z,12.40
2023-03-05T13:28:32.707Z,11.03
2023-03-05T13:29:34.217Z,12.40
2023-03-05T13:30:36.185Z,11.53
2023-03-05T13:31:49.576Z,11.83
2023-03-05T13:32:53.054Z,12.07
2023-03-05T13:33:59.639Z,11.83
2023-03-05T13:35:01.461Z,11.40
2023-03-05T13:36:05.101Z,11.33
2023-03-05T13:37:17.327Z,11.20
2023-03-05T13:38:29.281Z,10.93
2023-03-05T13:39:56.481Z,11.13
2023-03-05T13:41:25.536Z,11.83
2023-03-05T13:42:32.790Z,11.73
2023-03-05T13:43:41.781Z,11.77
2023-03-05T13:44:43.423Z,12.07
2023-03-05T13:45:53.867Z,11.40
2023-03-05T13:47:18.136Z,10.90
2023-03-05T13:48:20.159Z,11.27
2023-03-05T13:49:23.233Z,10.87
2023-03-05T13:50:31.571Z,12.53
2023-03-05T13:51:45.547Z,12.07
2023-03-05T13:52:47.077Z,11.77
2023-03-05T13:53:49.271Z,11.83